Time;durP1;ratioP1;P1;durP2;ratioP2;P2;SDS_P1;SDS_P2;PMS_P1;PMS_P2;Temp;Humidity;BMP_temperature;BMP_pressure;BME280_temperature;BME280_humidity;BME280_pressure;Samples;Min_cycle;Max_cycle;Signal;HPM_P1;HPM_P2
2021/01/25 00:01:07;;;;;;;11.73;4.50;;;0.30;99.90;;;;;;5016314;28;20022;-62
2021/01/25 00:03:33;;;;;;;7.93;4.53;;;0.30;99.90;;;;;;5020133;28;20037;-57
2021/01/25 00:06:00;;;;;;;6.78;4.63;;;0.40;99.90;;;;;;4986489;28;20046;-61
2021/01/25 00:08:25;;;;;;;11.68;4.93;;;0.40;99.90;;;;;;5014899;28;20062;-61
2021/01/25 00:10:51;;;;;;;12.32;4.93;;;0.40;99.90;;;;;;5019456;28;20072;-59
2021/01/25 00:13:16;;;;;;;7.95;4.68;;;0.40;99.90;;;;;;5012370;28;20087;-62
2021/01/25 00:15:42;;;;;;;10.60;5.65;;;0.40;99.90;;;;;;5012342;28;20455;-59
2021/01/25 00:18:08;;;;;;;9.82;4.50;;;0.40;99.90;;;;;;5010883;28;20064;-61
2021/01/25 00:20:33;;;;;;;10.80;4.50;;;0.40;99.90;;;;;;5015065;28;20026;-61
2021/01/25 00:22:59;;;;;;;9.52;4.32;;;0.40;99.90;;;;;;5013741;28;20033;-60
2021/01/25 00:25:24;;;;;;;10.88;3.88;;;0.50;99.90;;;;;;5013609;28;20029;-60
2021/01/25 00:27:50;;;;;;;10.40;4.50;;;0.40;99.90;;;;;;5014979;28;20080;-60
2021/01/25 00:30:17;;;;;;;6.45;3.75;;;0.50;99.90;;;;;;5012062;28;20061;-61
2021/01/25 00:32:44;;;;;;;10.98;4.57;;;0.50;99.90;;;;;;5028807;28;20080;-61
2021/01/25 00:35:11;;;;;;;10.27;4.95;;;0.50;99.90;;;;;;5013424;28;20045;-60
2021/01/25 00:37:36;;;;;;;14.38;5.88;;;0.50;99.90;;;;;;5016445;28;20125;-60
2021/01/25 00:40:04;;;;;;;10.07;4.18;;;0.50;99.90;;;;;;5013731;28;20097;-60
2021/01/25 00:42:30;;;;;;;13.65;4.75;;;0.50;99.90;;;;;;5023635;28;20072;-60
2021/01/25 00:44:55;;;;;;;10.57;4.93;;;0.50;99.90;;;;;;5012846;28;20033;-61
2021/01/25 00:47:21;;;;;;;6.30;4.40;;;0.40;99.90;;;;;;5021356;28;20037;-61
2021/01/25 00:49:46;;;;;;;8.70;4.65;;;0.40;99.90;;;;;;5017144;28;20051;-59
2021/01/25 00:52:12;;;;;;;7.93;4.63;;;0.40;99.90;;;;;;5016854;28;20134;-61
2021/01/25 00:54:37;;;;;;;7.28;5.03;;;0.40;99.90;;;;;;5028498;28;20021;-57
2021/01/25 00:57:04;;;;;;;12.18;5.10;;;0.40;99.90;;;;;;5018374;28;20033;-61
2021/01/25 00:59:30;;;;;;;9.38;5.18;;;0.40;99.90;;;;;;5026021;28;20040;-59
2021/01/25 01:01:55;;;;;;;8.15;5.57;;;0.40;99.90;;;;;;5028717;28;20028;-60
2021/01/25 01:04:21;;;;;;;8.70;5.10;;;0.40;99.90;;;;;;5013488;28;20395;-61
2021/01/25 01:06:46;;;;;;;13.18;5.90;;;0.40;99.90;;;;;;4977750;28;20040;-61
2021/01/25 01:09:12;;;;;;;11.10;4.90;;;0.40;99.90;;;;;;5020650;28;20037;-60
2021/01/25 01:11:37;;;;;;;8.52;4.07;;;0.40;99.90;;;;;;5010144;28;20033;-62
2021/01/25 01:14:03;;;;;;;8.95;4.80;;;0.40;99.90;;;;;;5013358;28;20088;-58
2021/01/25 01:16:30;;;;;;;6.82;4.60;;;0.40;99.90;;;;;;5018291;28;20021;-60
2021/01/25 01:18:55;;;;;;;11.07;5.43;;;0.40;99.90;;;;;;5012039;28;20049;-61
2021/01/25 01:21:21;;;;;;;14.75;5.93;;;0.40;99.90;;;;;;5017767;28;20026;-61
2021/01/25 01:23:46;;;;;;;6.80;4.28;;;0.30;99.90;;;;;;5023113;28;20022;-59
2021/01/25 01:26:12;;;;;;;9.63;4.50;;;0.40;99.90;;;;;;5023111;28;20033;-58
2021/01/25 01:28:37;;;;;;;7.87;4.47;;;0.40;99.90;;;;;;5022215;28;20033;-61
2021/01/25 01:31:03;;;;;;;12.45;5.47;;;0.40;99.90;;;;;;5019538;28;20030;-62
2021/01/25 01:33:28;;;;;;;10.95;5.50;;;0.30;99.90;;;;;;5017184;28;20041;-61
2021/01/25 01:35:54;;;;;;;13.07;5.68;;;0.30;99.90;;;;;;5017936;28;20022;-60
2021/01/25 01:38:20;;;;;;;9.20;5.07;;;0.30;99.90;;;;;;5012633;28;20033;-62
2021/01/25 01:40:45;;;;;;;11.30;5.20;;;0.30;99.90;;;;;;5025270;28;20064;-61
2021/01/25 01:43:11;;;;;;;10.85;4.88;;;0.30;99.90;;;;;;5023635;28;20029;-61
2021/01/25 01:45:36;;;;;;;7.85;4.85;;;0.30;99.90;;;;;;5023729;28;20033;-60
2021/01/25 01:48:02;;;;;;;9.77;5.17;;;0.30;99.90;;;;;;5026658;28;20034;-59
2021/01/25 01:50:28;;;;;;;9.32;4.70;;;0.40;99.90;;;;;;5010072;28;20038;-57
2021/01/25 01:52:54;;;;;;;12.45;5.13;;;0.30;99.90;;;;;;5023216;28;20041;-60
2021/01/25 01:55:21;;;;;;;6.05;4.25;;;0.30;99.90;;;;;;5024275;28;20021;-60
2021/01/25 01:57:50;;;;;;;11.90;4.90;;;0.30;99.90;;;;;;5017552;28;20037;-59
2021/01/25 02:00:16;;;;;;;10.38;4.97;;;0.20;99.90;;;;;;5015381;28;20026;-60
2021/01/25 02:02:42;;;;;;;7.72;4.30;;;0.20;99.90;;;;;;5015179;28;20025;-60
2021/01/25 02:05:08;;;;;;;9.65;4.22;;;0.30;99.90;;;;;;5023616;28;20503;-63
2021/01/25 02:07:35;;;;;;;9.37;4.83;;;0.30;99.90;;;;;;4983843;28;20056;-60
2021/01/25 02:10:03;;;;;;;13.02;4.57;;;0.30;99.90;;;;;;5022029;28;20065;-59
2021/01/25 02:12:30;;;;;;;9.40;5.32;;;0.30;99.90;;;;;;5018060;28;20022;-59
2021/01/25 02:15:03;;;;;;;7.75;3.80;;;0.30;99.90;;;;;;5017572;28;20488;-60
2021/01/25 02:17:29;;;;;;;7.47;4.53;;;0.30;99.90;;;;;;5016620;28;20480;-60
2021/01/25 02:20:11;;;;;;;9.65;5.32;;;0.30;99.90;;;;;;5014815;28;20038;-62
2021/01/25 02:22:37;;;;;;;12.60;5.22;;;0.30;99.90;;;;;;5025069;28;20716;-60
2021/01/25 02:25:22;;;;;;;11.43;5.10;;;0.30;99.90;;;;;;5023263;28;20042;-60
2021/01/25 02:27:48;;;;;;;9.13;4.80;;;0.30;99.90;;;;;;5020434;28;20462;-60
2021/01/25 02:30:15;;;;;;;7.75;5.53;;;0.30;99.90;;;;;;5015369;28;20042;-59
2021/01/25 02:32:42;;;;;;;8.75;5.47;;;0.30;99.90;;;;;;5020627;28;20044;-61
2021/01/25 02:35:10;;;;;;;9.43;4.72;;;0.30;99.90;;;;;;5016903;28;20045;-62
2021/01/25 02:37:38;;;;;;;7.63;4.63;;;0.30;99.90;;;;;;5024136;28;20127;-61
2021/01/25 02:40:05;;;;;;;7.93;4.65;;;0.30;99.90;;;;;;5015959;28;20030;-58
2021/01/25 02:42:32;;;;;;;8.93;5.17;;;0.30;99.90;;;;;;5012695;28;20084;-62
2021/01/25 02:44:59;;;;;;;10.05;5.55;;;0.30;99.90;;;;;;5012834;28;20022;-62
2021/01/25 02:47:26;;;;;;;11.60;5.32;;;0.30;99.90;;;;;;5014671;28;20034;-61
2021/01/25 02:49:52;;;;;;;8.80;4.60;;;0.30;99.90;;;;;;5018452;28;20454;-61
2021/01/25 02:52:17;;;;;;;9.23;5.32;;;0.30;99.90;;;;;;5018898;28;20029;-60
2021/01/25 02:54:44;;;;;;;11.00;5.45;;;0.30;99.90;;;;;;5013547;28;20497;-60
2021/01/25 02:57:14;;;;;;;8.82;5.55;;;0.30;99.90;;;;;;5019986;28;20025;-60
2021/01/25 02:59:41;;;;;;;8.60;5.05;;;0.40;99.90;;;;;;5020907;28;20032;-59
2021/01/25 03:02:07;;;;;;;10.27;5.85;;;0.30;99.90;;;;;;5007085;28;20021;-61
2021/01/25 03:04:37;;;;;;;13.02;5.97;;;0.40;99.90;;;;;;5012192;28;20101;-61
2021/01/25 03:07:03;;;;;;;9.88;4.97;;;0.40;99.90;;;;;;4977014;28;20188;-60
2021/01/25 03:09:29;;;;;;;9.60;5.93;;;0.40;99.90;;;;;;5014095;28;20029;-60
2021/01/25 03:12:01;;;;;;;10.80;5.63;;;0.40;99.90;;;;;;5015608;28;20030;-60
2021/01/25 03:14:26;;;;;;;9.53;5.80;;;0.40;99.90;;;;;;5015319;28;20057;-59
2021/01/25 03:16:52;;;;;;;10.17;5.50;;;0.40;99.90;;;;;;5020342;28;20080;-58
2021/01/25 03:19:18;;;;;;;11.77;5.70;;;0.40;99.90;;;;;;5012270;28;20080;-61
2021/01/25 03:21:48;;;;;;;12.05;5.70;;;0.40;99.90;;;;;;5021037;28;20560;-61
2021/01/25 03:24:14;;;;;;;8.57;5.22;;;0.40;99.90;;;;;;5020494;28;20384;-60
2021/01/25 03:26:40;;;;;;;7.82;5.13;;;0.30;99.90;;;;;;5015765;28;20029;-61
2021/01/25 03:29:06;;;;;;;10.27;5.18;;;0.40;99.90;;;;;;5023403;28;20026;-60
2021/01/25 03:31:32;;;;;;;11.73;5.35;;;0.40;99.90;;;;;;5014998;28;20407;-60
2021/01/25 03:33:57;;;;;;;10.00;5.57;;;0.40;99.90;;;;;;5015720;28;20033;-60
2021/01/25 03:36:23;;;;;;;9.65;5.40;;;0.40;99.90;;;;;;5022811;28;20065;-62
2021/01/25 03:38:49;;;;;;;10.70;5.03;;;0.40;99.90;;;;;;5020175;28;20025;-60
2021/01/25 03:41:14;;;;;;;8.40;4.90;;;0.40;99.90;;;;;;5013502;28;20022;-65
2021/01/25 03:43:40;;;;;;;12.88;6.50;;;0.40;99.90;;;;;;5020773;28;20026;-60
2021/01/25 03:46:05;;;;;;;9.93;6.15;;;0.40;99.90;;;;;;5021357;28;20028;-61
2021/01/25 03:48:31;;;;;;;10.82;6.20;;;0.40;99.90;;;;;;5015236;28;20034;-61
2021/01/25 03:50:56;;;;;;;11.32;5.35;;;0.40;99.90;;;;;;5020288;28;20101;-60
2021/01/25 03:53:22;;;;;;;10.50;6.00;;;0.40;99.90;;;;;;5022088;28;20026;-59
2021/01/25 03:55:47;;;;;;;7.82;4.65;;;0.40;99.90;;;;;;5011747;28;20030;-61
2021/01/25 03:58:13;;;;;;;9.73;5.60;;;0.40;99.90;;;;;;5023399;28;20026;-61
2021/01/25 04:00:39;;;;;;;8.80;5.25;;;0.50;99.90;;;;;;5019771;28;20517;-52
2021/01/25 04:03:05;;;;;;;10.07;6.28;;;0.50;99.90;;;;;;5016122;28;20439;-53
2021/01/25 04:05:30;;;;;;;10.83;5.27;;;0.50;99.90;;;;;;5012878;28;20216;-62
2021/01/25 04:07:56;;;;;;;10.07;5.30;;;0.50;99.90;;;;;;4970642;28;20050;-61
2021/01/25 04:10:22;;;;;;;9.33;5.57;;;0.40;99.90;;;;;;5013833;28;20065;-60
2021/01/25 04:12:47;;;;;;;10.38;6.05;;;0.40;99.90;;;;;;5013721;28;20018;-62
2021/01/25 04:15:13;;;;;;;15.07;7.45;;;0.40;99.90;;;;;;5012231;28;20026;-62
2021/01/25 04:17:39;;;;;;;12.48;6.60;;;0.40;99.90;;;;;;5014291;28;20036;-62
2021/01/25 04:20:08;;;;;;;10.10;5.43;;;0.40;99.90;;;;;;5010532;28;20048;-61
2021/01/25 04:22:33;;;;;;;8.95;6.05;;;0.40;99.90;;;;;;5015919;28;20025;-62
2021/01/25 04:24:59;;;;;;;10.32;6.13;;;0.40;99.90;;;;;;5015925;28;20538;-61
2021/01/25 04:27:24;;;;;;;9.68;5.68;;;0.40;99.90;;;;;;5011852;28;20033;-61
2021/01/25 04:29:51;;;;;;;11.35;6.90;;;0.50;99.90;;;;;;5011691;28;20080;-61
2021/01/25 04:32:17;;;;;;;8.68;6.28;;;0.50;99.90;;;;;;5008011;28;20109;-61
2021/01/25 04:34:43;;;;;;;13.13;6.75;;;0.50;99.90;;;;;;5012326;28;20029;-60
2021/01/25 04:37:08;;;;;;;13.55;6.32;;;0.50;99.90;;;;;;5018127;28;20022;-60
2021/01/25 04:39:34;;;;;;;13.07;6.85;;;0.40;99.90;;;;;;5018802;28;20377;-63
2021/01/25 04:42:00;;;;;;;13.57;6.10;;;0.50;99.90;;;;;;5023591;28;20081;-61
2021/01/25 04:44:27;;;;;;;14.02;7.28;;;0.50;99.90;;;;;;5018937;28;20064;-61
2021/01/25 04:46:54;;;;;;;13.48;7.07;;;0.50;99.90;;;;;;5013989;28;20021;-62
2021/01/25 04:49:21;;;;;;;11.55;6.97;;;0.50;99.90;;;;;;5013168;28;20044;-61
2021/01/25 04:51:47;;;;;;;12.25;7.15;;;0.50;99.90;;;;;;5016745;28;20516;-62
2021/01/25 04:54:14;;;;;;;11.77;7.32;;;0.50;99.90;;;;;;5018101;28;20100;-61
2021/01/25 04:56:41;;;;;;;13.75;8.18;;;0.50;99.90;;;;;;5025209;28;20032;-59
2021/01/25 04:59:06;;;;;;;11.02;7.30;;;0.50;99.90;;;;;;5015903;28;20143;-57
2021/01/25 05:01:32;;;;;;;14.13;8.38;;;0.40;99.90;;;;;;5023204;28;20101;-62
2021/01/25 05:03:58;;;;;;;12.85;7.88;;;0.30;99.90;;;;;;5024695;28;20121;-60
2021/01/25 05:06:23;;;;;;;15.32;8.52;;;0.40;99.90;;;;;;5018662;28;20177;-61
2021/01/25 05:08:49;;;;;;;16.60;8.05;;;0.40;99.90;;;;;;4958319;28;20208;-62
2021/01/25 05:11:17;;;;;;;15.70;8.02;;;0.40;99.90;;;;;;5012817;28;20041;-61
2021/01/25 05:13:43;;;;;;;12.48;7.93;;;0.40;99.90;;;;;;5010367;28;20396;-58
2021/01/25 05:16:19;;;;;;;13.00;8.02;;;0.30;99.90;;;;;;5011855;28;20028;-61
2021/01/25 05:18:46;;;;;;;13.90;8.60;;;0.40;99.90;;;;;;5009801;28;20021;-60
2021/01/25 05:21:12;;;;;;;16.15;9.27;;;0.30;99.90;;;;;;5011296;28;20116;-60
2021/01/25 05:23:39;;;;;;;13.10;8.15;;;0.30;99.90;;;;;;5013080;28;20483;-59
2021/01/25 05:26:06;;;;;;;15.70;8.40;;;0.30;99.90;;;;;;5011550;28;20499;-61
2021/01/25 05:28:39;;;;;;;16.40;8.50;;;0.40;99.90;;;;;;5017760;28;20041;-56
2021/01/25 05:31:22;;;;;;;15.05;8.60;;;0.40;99.90;;;;;;5022289;28;20105;-55
2021/01/25 05:33:49;;;;;;;14.05;9.00;;;0.40;99.90;;;;;;5020529;28;20049;-60
2021/01/25 05:36:35;;;;;;;12.52;7.97;;;0.40;99.90;;;;;;5024347;28;20538;-61
2021/01/25 05:39:03;;;;;;;14.95;9.50;;;0.40;99.90;;;;;;5019702;28;20046;-62
2021/01/25 05:41:28;;;;;;;14.30;9.73;;;0.40;99.90;;;;;;5019098;28;20022;-57
2021/01/25 05:43:54;;;;;;;15.00;9.20;;;0.40;99.90;;;;;;5017217;28;20022;-63
2021/01/25 05:46:19;;;;;;;13.82;8.75;;;0.40;99.90;;;;;;5010447;28;20077;-61
2021/01/25 05:48:57;;;;;;;15.18;9.63;;;0.40;99.90;;;;;;5021819;28;20037;-61
2021/01/25 05:51:23;;;;;;;16.63;9.85;;;0.40;99.90;;;;;;5018489;28;20088;-53
2021/01/25 05:53:48;;;;;;;16.83;9.88;;;0.30;99.90;;;;;;5018075;28;20030;-56
2021/01/25 05:56:16;;;;;;;15.90;9.65;;;0.40;99.90;;;;;;5017269;28;20026;-53
2021/01/25 05:58:42;;;;;;;16.05;9.35;;;0.40;99.90;;;;;;5023272;28;20522;-59
2021/01/25 06:01:08;;;;;;;13.93;9.23;;;0.40;99.90;;;;;;5014422;28;20026;-60
2021/01/25 06:03:37;;;;;;;17.77;10.07;;;0.40;99.90;;;;;;5021199;28;20102;-62
2021/01/25 06:06:10;;;;;;;13.55;9.68;;;0.50;99.90;;;;;;5018162;28;20030;-61
2021/01/25 06:08:53;;;;;;;14.80;9.65;;;0.50;99.90;;;;;;4998586;28;20046;-63
2021/01/25 06:11:22;;;;;;;17.00;9.68;;;0.40;99.90;;;;;;5012886;28;20024;-62
2021/01/25 06:13:54;;;;;;;15.93;9.90;;;0.40;99.90;;;;;;5013451;28;20080;-62
2021/01/25 06:16:26;;;;;;;17.15;10.23;;;0.40;99.90;;;;;;5020738;28;20025;-62
2021/01/25 06:18:56;;;;;;;14.68;8.82;;;0.50;99.90;;;;;;5017159;28;20423;-62
2021/01/25 06:21:26;;;;;;;18.45;10.60;;;0.50;99.90;;;;;;5015823;28;20025;-62
2021/01/25 06:23:54;;;;;;;16.60;10.05;;;0.50;99.90;;;;;;5013623;28;20472;-60
2021/01/25 06:26:25;;;;;;;14.35;9.57;;;0.50;99.90;;;;;;5019547;28;20025;-61
2021/01/25 06:28:51;;;;;;;14.20;9.65;;;0.50;99.90;;;;;;5019515;28;20542;-62
2021/01/25 06:31:20;;;;;;;14.90;9.70;;;0.50;99.90;;;;;;5017998;28;20427;-60
2021/01/25 06:33:49;;;;;;;16.98;9.95;;;0.50;99.90;;;;;;5014096;28;20029;-59
2021/01/25 06:36:19;;;;;;;16.50;10.45;;;0.50;99.90;;;;;;5029006;28;20087;-60
2021/01/25 06:38:48;;;;;;;20.20;11.60;;;0.40;99.90;;;;;;5017449;28;20087;-61
2021/01/25 06:41:15;;;;;;;14.70;9.70;;;0.40;99.90;;;;;;5016496;28;20529;-61
2021/01/25 06:43:43;;;;;;;20.65;11.20;;;0.50;99.90;;;;;;5015692;28;20037;-59
2021/01/25 06:46:09;;;;;;;16.23;11.02;;;0.40;99.90;;;;;;5013823;28;20109;-61
2021/01/25 06:48:36;;;;;;;18.33;10.55;;;0.40;99.90;;;;;;5018095;28;20113;-61
2021/01/25 06:51:04;;;;;;;17.15;11.43;;;0.50;99.90;;;;;;5017811;28;20038;-62
2021/01/25 06:53:30;;;;;;;18.02;10.77;;;0.50;99.90;;;;;;5019898;28;20029;-62
2021/01/25 06:56:00;;;;;;;17.95;11.73;;;0.50;99.90;;;;;;5015511;28;20331;-62
2021/01/25 06:58:30;;;;;;;21.27;11.45;;;0.50;99.90;;;;;;5019907;28;20033;-62
2021/01/25 07:01:03;;;;;;;17.20;12.02;;;0.50;99.90;;;;;;5014702;28;20018;-62
2021/01/25 07:03:56;;;;;;;20.55;11.65;;;0.50;99.90;;;;;;5017580;28;20072;-62
2021/01/25 07:06:22;;;;;;;17.38;11.27;;;0.50;99.90;;;;;;5020583;28;20025;-62
2021/01/25 07:08:55;;;;;;;16.60;10.43;;;0.50;99.90;;;;;;4995044;28;20054;-62
2021/01/25 07:11:23;;;;;;;16.58;10.85;;;0.50;99.90;;;;;;5012942;28;20535;-60
2021/01/25 07:13:49;;;;;;;16.55;11.13;;;0.50;99.90;;;;;;5016921;28;20371;-62
2021/01/25 07:16:17;;;;;;;17.45;11.93;;;0.50;99.90;;;;;;5012432;28;20487;-61
2021/01/25 07:18:43;;;;;;;16.88;11.07;;;0.50;99.90;;;;;;5011450;28;20029;-58
2021/01/25 07:21:12;;;;;;;19.75;10.77;;;0.50;99.90;;;;;;5016736;28;20086;-61
2021/01/25 07:23:43;;;;;;;16.42;10.18;;;0.50;99.90;;;;;;5018833;28;20148;-61
2021/01/25 07:26:14;;;;;;;14.55;10.15;;;0.50;99.90;;;;;;5017986;28;20064;-62
2021/01/25 07:28:40;;;;;;;19.73;11.02;;;0.50;99.90;;;;;;5012757;28;20049;-62
2021/01/25 07:31:07;;;;;;;17.05;10.05;;;0.50;99.90;;;;;;5019768;28;20487;-60
2021/01/25 07:33:33;;;;;;;15.43;10.55;;;0.60;99.90;;;;;;5013656;28;20105;-63
2021/01/25 07:35:58;;;;;;;17.38;10.00;;;0.60;99.90;;;;;;5022225;28;20109;-62
2021/01/25 07:38:27;;;;;;;13.32;9.02;;;0.60;99.90;;;;;;5024137;28;20036;-63
2021/01/25 07:40:57;;;;;;;16.58;10.00;;;0.70;99.90;;;;;;5027517;28;20120;-62
2021/01/25 07:43:25;;;;;;;15.50;10.52;;;0.70;99.90;;;;;;5015937;28;20092;-62
2021/01/25 07:45:51;;;;;;;17.65;10.00;;;0.70;99.90;;;;;;5012134;28;20034;-61
2021/01/25 07:48:17;;;;;;;14.55;10.25;;;0.70;99.90;;;;;;5014114;28;20028;-61
2021/01/25 07:50:53;;;;;;;17.33;9.80;;;0.70;99.90;;;;;;5016347;28;20029;-61
2021/01/25 07:53:18;;;;;;;18.02;10.77;;;0.70;99.90;;;;;;4994403;28;20047;-61
2021/01/25 07:55:44;;;;;;;15.63;10.88;;;0.70;99.90;;;;;;5032713;28;20041;-62
2021/01/25 07:58:11;;;;;;;13.98;9.50;;;0.70;99.90;;;;;;5039212;28;20094;-62
2021/01/25 08:00:40;;;;;;;15.65;9.73;;;0.70;99.90;;;;;;5032053;28;20022;-60
2021/01/25 08:03:09;;;;;;;16.80;10.52;;;0.70;99.90;;;;;;5034265;28;20033;-60
2021/01/25 08:05:35;;;;;;;15.00;9.45;;;0.80;99.90;;;;;;5031404;28;20030;-61
2021/01/25 08:08:07;;;;;;;18.63;10.77;;;0.80;99.90;;;;;;5025170;28;20059;-61
2021/01/25 08:10:32;;;;;;;15.52;9.65;;;0.90;99.90;;;;;;5041013;28;20029;-62
2021/01/25 08:13:17;;;;;;;15.93;10.52;;;1.00;99.90;;;;;;5031469;28;20041;-62
2021/01/25 08:15:49;;;;;;;;;;;1.00;99.90;;;;;;5037348;28;20075;-62
2021/01/25 08:18:15;;;;;;;13.73;8.55;;;1.00;99.90;;;;;;5032734;28;19946;-61
2021/01/25 08:20:41;;;;;;;15.00;9.70;;;1.10;99.90;;;;;;5044260;28;20029;-59
2021/01/25 08:23:12;;;;;;;14.00;9.68;;;1.10;99.90;;;;;;5034104;28;20409;-55
2021/01/25 08:25:38;;;;;;;15.55;8.82;;;1.20;99.90;;;;;;5012111;28;20044;-62
2021/01/25 08:28:18;;;;;;;13.55;8.27;;;1.20;99.90;;;;;;5014389;28;20056;-62
2021/01/25 08:30:47;;;;;;;11.63;8.25;;;1.20;99.90;;;;;;5015285;28;20562;-62
2021/01/25 08:33:15;;;;;;;15.10;9.43;;;1.30;99.90;;;;;;5014290;28;20034;-60
2021/01/25 08:35:55;;;;;;;16.45;9.43;;;1.30;99.90;;;;;;5023085;28;20053;-62
2021/01/25 08:38:37;;;;;;;13.60;8.75;;;1.30;99.90;;;;;;5025039;28;20084;-59
2021/01/25 08:41:22;;;;;;;17.42;9.25;;;1.30;99.90;;;;;;5018723;28;20041;-61
2021/01/25 08:43:55;;;;;;;;;;;1.30;99.90;;;;;;5018264;28;20075;-62
2021/01/25 08:46:32;;;;;;;12.13;7.30;;;1.40;99.90;;;;;;5011304;28;19935;-62
2021/01/25 08:49:17;;;;;;;12.80;8.43;;;1.40;99.90;;;;;;5020315;28;20060;-61
2021/01/25 08:51:55;;;;;;;12.80;8.32;;;1.50;99.90;;;;;;5016275;28;20028;-62
2021/01/25 08:54:26;;;;;;;11.18;7.43;;;1.60;99.90;;;;;;5017939;28;20033;-61
2021/01/25 08:56:52;;;;;;;11.45;8.23;;;1.60;99.90;;;;;;5022337;28;20057;-60
2021/01/25 08:59:34;;;;;;;11.65;8.48;;;1.60;99.90;;;;;;5024189;28;20053;-62
2021/01/25 09:02:23;;;;;;;11.20;7.53;;;1.60;99.90;;;;;;5015795;28;20040;-60
2021/01/25 09:04:52;;;;;;;13.50;8.80;;;1.70;99.90;;;;;;5013073;28;20018;-58
2021/01/25 09:07:20;;;;;;;10.90;7.57;;;1.70;99.90;;;;;;5019620;28;20010;-62
2021/01/25 09:09:49;;;;;;;13.80;8.38;;;1.70;99.90;;;;;;4997678;28;20416;-60
2021/01/25 09:12:16;;;;;;;15.45;8.85;;;1.70;99.90;;;;;;5012096;28;20029;-56
2021/01/25 09:14:41;;;;;;;12.00;7.70;;;1.60;99.90;;;;;;5015179;28;20029;-61
2021/01/25 09:17:08;;;;;;;12.60;8.18;;;1.70;99.90;;;;;;5012076;28;20036;-55
2021/01/25 09:19:35;;;;;;;11.80;8.18;;;1.70;99.90;;;;;;5014083;28;20033;-61
2021/01/25 09:22:00;;;;;;;13.95;8.98;;;1.70;99.90;;;;;;5013573;28;20108;-61
2021/01/25 09:24:26;;;;;;;12.57;7.47;;;1.80;99.90;;;;;;5017361;28;20018;-63
2021/01/25 09:26:51;;;;;;;12.63;8.52;;;1.80;99.90;;;;;;5015347;28;20377;-63
2021/01/25 09:29:18;;;;;;;12.30;8.65;;;1.90;99.90;;;;;;5010408;28;20430;-64
2021/01/25 09:31:43;;;;;;;14.00;7.43;;;1.90;99.90;;;;;;5010828;28;20030;-62
2021/01/25 09:34:09;;;;;;;11.27;7.38;;;1.90;99.90;;;;;;5011894;28;20111;-61
2021/01/25 09:36:35;;;;;;;14.65;8.15;;;1.90;99.90;;;;;;5018408;28;20044;-60
2021/01/25 09:39:01;;;;;;;13.45;8.25;;;1.80;99.90;;;;;;5017192;28;20909;-61
2021/01/25 09:41:27;;;;;;;15.48;10.55;;;1.80;99.90;;;;;;5020898;28;20119;-63
2021/01/25 09:43:54;;;;;;;18.75;12.90;;;1.80;99.90;;;;;;5021403;28;20113;-62
2021/01/25 09:46:20;;;;;;;15.98;9.75;;;1.80;99.90;;;;;;5010633;28;20021;-61
2021/01/25 09:48:46;;;;;;;18.17;9.70;;;1.80;99.90;;;;;;5012546;28;20399;-61
2021/01/25 09:51:11;;;;;;;16.88;10.00;;;1.70;99.90;;;;;;5014421;28;20029;-61
2021/01/25 09:53:37;;;;;;;18.38;11.85;;;1.70;99.90;;;;;;5018380;28;20124;-61
2021/01/25 09:56:03;;;;;;;17.02;11.30;;;1.70;99.90;;;;;;5017087;28;20025;-62
2021/01/25 09:58:28;;;;;;;16.05;9.48;;;1.70;99.90;;;;;;5013239;28;20034;-61
2021/01/25 10:00:54;;;;;;;16.52;9.38;;;1.70;99.90;;;;;;5015295;28;20025;-62
2021/01/25 10:03:19;;;;;;;19.40;9.93;;;1.70;99.90;;;;;;5014157;28;20025;-62
2021/01/25 10:05:45;;;;;;;14.95;9.48;;;1.70;99.90;;;;;;5010948;28;20025;-62
2021/01/25 10:08:11;;;;;;;16.05;8.52;;;1.70;99.90;;;;;;5013271;28;20045;-60
2021/01/25 10:10:36;;;;;;;13.10;9.27;;;1.80;99.90;;;;;;4996414;28;20057;-62
2021/01/25 10:13:02;;;;;;;16.38;8.95;;;1.80;99.90;;;;;;5025335;28;20022;-62
2021/01/25 10:15:28;;;;;;;16.70;9.23;;;1.80;99.90;;;;;;5017100;28;20021;-61
2021/01/25 10:17:54;;;;;;;18.10;10.10;;;1.80;99.90;;;;;;5018477;28;20033;-61
2021/01/25 10:20:19;;;;;;;15.27;8.77;;;1.90;99.90;;;;;;5011550;28;20100;-62
2021/01/25 10:22:45;;;;;;;13.43;9.32;;;1.90;99.90;;;;;;5018292;28;20022;-62
2021/01/25 10:25:12;;;;;;;15.60;9.35;;;1.90;99.90;;;;;;5019394;28;20026;-60
2021/01/25 10:27:38;;;;;;;15.50;10.02;;;2.00;99.90;;;;;;5020494;28;20087;-61
2021/01/25 10:30:06;;;;;;;19.17;10.93;;;2.00;99.90;;;;;;5018278;28;20033;-62
2021/01/25 10:32:32;;;;;;;15.50;9.27;;;2.10;99.90;;;;;;5021501;28;20034;-62
2021/01/25 10:34:58;;;;;;;12.68;8.20;;;2.30;99.90;;;;;;5013916;28;20075;-62
2021/01/25 10:37:25;;;;;;;14.88;9.02;;;2.40;99.90;;;;;;5018396;28;20021;-60
2021/01/25 10:39:50;;;;;;;15.05;8.52;;;2.50;99.90;;;;;;5022401;28;20113;-63
2021/01/25 10:42:16;;;;;;;15.55;9.77;;;2.60;99.90;;;;;;5018271;28;20101;-61
2021/01/25 10:44:41;;;;;;;13.00;8.68;;;2.70;99.90;;;;;;5024473;28;20056;-62
2021/01/25 10:47:07;;;;;;;12.80;9.05;;;2.70;99.90;;;;;;5018100;28;20022;-56
2021/01/25 10:49:33;;;;;;;15.77;9.85;;;2.80;99.90;;;;;;5013266;28;20077;-59
2021/01/25 10:51:59;;;;;;;16.23;9.68;;;2.90;99.90;;;;;;5018680;28;20070;-61
2021/01/25 10:54:25;;;;;;;16.10;9.00;;;2.90;99.90;;;;;;5013564;28;20507;-63
2021/01/25 10:56:51;;;;;;;14.35;9.65;;;3.10;99.90;;;;;;5013604;28;20026;-62
2021/01/25 10:59:17;;;;;;;13.50;8.93;;;3.20;99.90;;;;;;5012256;28;20033;-63
2021/01/25 11:01:43;;;;;;;11.68;7.50;;;3.30;99.90;;;;;;5012987;28;20412;-61
2021/01/25 11:04:08;;;;;;;11.80;8.10;;;3.40;99.90;;;;;;5014878;28;20021;-62
2021/01/25 11:06:34;;;;;;;13.10;8.77;;;3.40;99.90;;;;;;5012873;28;20018;-62
2021/01/25 11:08:59;;;;;;;12.65;8.70;;;3.50;99.90;;;;;;5022982;28;20052;-61
2021/01/25 11:11:25;;;;;;;17.90;10.13;;;3.50;99.90;;;;;;4995810;28;20042;-62
2021/01/25 11:13:51;;;;;;;18.15;11.20;;;3.40;99.90;;;;;;5015720;28;20030;-63
2021/01/25 11:16:16;;;;;;;10.73;8.13;;;3.30;99.90;;;;;;5021757;28;20022;-62
2021/01/25 11:18:42;;;;;;;13.20;9.38;;;3.20;99.90;;;;;;5011971;28;20025;-60
2021/01/25 11:21:08;;;;;;;14.60;9.23;;;3.10;99.90;;;;;;5024734;28;20022;-60
2021/01/25 11:23:33;;;;;;;14.60;9.50;;;3.20;99.90;;;;;;5025569;28;20075;-62
2021/01/25 11:25:59;;;;;;;15.00;9.27;;;3.30;99.90;;;;;;5024373;28;20034;-63
2021/01/25 11:28:25;;;;;;;13.90;9.05;;;3.40;99.90;;;;;;5018482;28;20026;-61
2021/01/25 11:30:51;;;;;;;14.52;9.55;;;3.40;99.90;;;;;;5024032;28;20454;-63
2021/01/25 11:33:17;;;;;;;13.55;8.82;;;3.40;99.90;;;;;;5012288;28;20064;-62
2021/01/25 11:35:42;;;;;;;15.85;9.48;;;3.40;99.90;;;;;;5012375;28;20445;-62
2021/01/25 11:38:08;;;;;;;12.77;9.32;;;3.40;99.90;;;;;;5014279;28;20669;-63
2021/01/25 11:40:33;;;;;;;11.00;8.15;;;3.50;99.90;;;;;;5021086;28;20021;-60
2021/01/25 11:42:59;;;;;;;14.60;8.70;;;3.70;99.90;;;;;;5015830;28;20022;-61
2021/01/25 11:45:24;;;;;;;13.82;8.80;;;3.70;99.90;;;;;;5011805;28;20053;-61
2021/01/25 11:47:50;;;;;;;13.40;8.55;;;3.40;99.90;;;;;;5015500;28;20033;-62
2021/01/25 11:50:16;;;;;;;13.85;8.98;;;3.40;99.90;;;;;;5026324;28;20155;-59
2021/01/25 11:52:41;;;;;;;13.15;9.70;;;3.50;99.90;;;;;;5016438;28;20047;-63
2021/01/25 11:55:08;;;;;;;13.23;9.73;;;3.50;99.90;;;;;;5014558;28;20608;-62
2021/01/25 11:57:33;;;;;;;11.88;8.85;;;3.50;99.90;;;;;;5017220;28;20025;-62
2021/01/25 11:59:59;;;;;;;14.63;8.80;;;3.60;99.90;;;;;;5013296;28;20461;-62
2021/01/25 12:02:25;;;;;;;12.98;8.77;;;3.70;99.90;;;;;;5014403;28;20049;-62
2021/01/25 12:04:51;;;;;;;13.93;8.35;;;3.80;99.90;;;;;;5018478;28;20028;-62
2021/01/25 12:07:18;;;;;;;13.50;8.50;;;3.90;99.90;;;;;;5019366;28;20021;-61
2021/01/25 12:09:44;;;;;;;11.93;7.97;;;4.00;99.90;;;;;;4991278;28;20022;-62
2021/01/25 12:12:09;;;;;;;15.82;10.07;;;4.00;99.90;;;;;;5016378;28;20024;-61
2021/01/25 12:14:35;;;;;;;13.60;9.20;;;4.10;99.90;;;;;;5015844;28;20032;-58
2021/01/25 12:17:01;;;;;;;15.25;9.38;;;4.00;99.90;;;;;;5012845;28;20259;-60
2021/01/25 12:19:26;;;;;;;13.93;9.10;;;4.10;99.90;;;;;;5013752;28;20026;-62
2021/01/25 12:21:52;;;;;;;12.77;8.85;;;4.20;99.90;;;;;;5014397;28;20036;-59
2021/01/25 12:24:17;;;;;;;12.98;9.13;;;4.10;99.90;;;;;;5012459;28;20097;-58
2021/01/25 12:26:43;;;;;;;13.82;9.43;;;3.90;99.90;;;;;;5013326;28;20040;-60
2021/01/25 12:29:09;;;;;;;13.18;8.68;;;3.80;99.90;;;;;;5011532;28;20062;-55
2021/01/25 12:31:34;;;;;;;12.98;9.05;;;3.80;99.90;;;;;;5011260;28;20025;-62
2021/01/25 12:34:00;;;;;;;11.75;8.38;;;3.60;99.90;;;;;;5024762;28;20119;-59
2021/01/25 12:36:25;;;;;;;14.18;8.88;;;3.60;99.90;;;;;;5014580;28;20026;-60
2021/01/25 12:38:51;;;;;;;13.57;8.40;;;3.60;99.90;;;;;;5011730;28;20482;-59
2021/01/25 12:41:16;;;;;;;11.98;8.10;;;3.60;99.90;;;;;;5011050;28;20049;-57
2021/01/25 12:43:42;;;;;;;13.60;8.80;;;3.60;99.90;;;;;;5011344;28;20066;-59
2021/01/25 12:46:08;;;;;;;11.43;7.55;;;3.70;99.90;;;;;;5014534;28;20032;-58
2021/01/25 12:48:34;;;;;;;10.77;7.15;;;3.60;99.90;;;;;;5010801;28;20503;-60